Longville, Minnesota
Current Conditions -  °F | °C
As of 4:36 PM on Tuesday 21 Oct 2014 (Local Time) from KXVG Reporting Station
Clear Clear  
Wind Chill: 55°   Ceiling: Unl
Heat Index: 55°   Visibility: 10mi
Dew Point: 37°   Wind: 9mph
Humidity: 51%   Direction: 120°ESE
Pressure: 30.07"   Gusts: 18mph
Location:  46.99°N, 94.21°W
Report Text: KXVG 212136Z AUTO 12008G16KT 104V204 10SM CLR 13/03 A3007 RMK AO2
Loading
Personal Weather Stations






























Interactive Weather Map
Tropical Storm Tracking
New forecast layout! Learn more

10-Day Weather Forecast

Advertisements
Track Severe Weather on mobile